sensor_id;sensor_type;location;lat;lon;timestamp;P1;durP1;ratioP1;P2;durP2;ratioP2
6414;SDS011;3240;48.790;9.210;2023-02-23T00:01:39;24.73;;;15.03;;
6414;SDS011;3240;48.790;9.210;2023-02-23T00:04:07;22.93;;;14.23;;
6414;SDS011;3240;48.790;9.210;2023-02-23T00:06:35;26.27;;;16.77;;
6414;SDS011;3240;48.790;9.210;2023-02-23T00:09:03;26.67;;;15.20;;
6414;SDS011;3240;48.790;9.210;2023-02-23T00:11:32;29.70;;;16.40;;
6414;SDS011;3240;48.790;9.210;2023-02-23T00:14:00;26.43;;;16.33;;
6414;SDS011;3240;48.790;9.210;2023-02-23T00:16:28;28.40;;;15.53;;
6414;SDS011;3240;48.790;9.210;2023-02-23T00:18:57;29.83;;;16.27;;
6414;SDS011;3240;48.790;9.210;2023-02-23T00:21:26;37.90;;;17.93;;
6414;SDS011;3240;48.790;9.210;2023-02-23T00:23:54;28.60;;;16.73;;
6414;SDS011;3240;48.790;9.210;2023-02-23T00:26:21;35.70;;;17.07;;
6414;SDS011;3240;48.790;9.210;2023-02-23T00:28:49;30.00;;;16.47;;
6414;SDS011;3240;48.790;9.210;2023-02-23T00:31:18;29.63;;;15.87;;
6414;SDS011;3240;48.790;9.210;2023-02-23T00:33:46;29.93;;;16.53;;
6414;SDS011;3240;48.790;9.210;2023-02-23T00:36:14;32.83;;;17.10;;
6414;SDS011;3240;48.790;9.210;2023-02-23T00:38:42;32.50;;;16.90;;
6414;SDS011;3240;48.790;9.210;2023-02-23T00:41:12;34.80;;;16.83;;
6414;SDS011;3240;48.790;9.210;2023-02-23T00:43:39;28.67;;;16.00;;
6414;SDS011;3240;48.790;9.210;2023-02-23T00:46:16;26.00;;;15.57;;
6414;SDS011;3240;48.790;9.210;2023-02-23T00:48:43;31.17;;;16.90;;
6414;SDS011;3240;48.790;9.210;2023-02-23T00:51:11;32.73;;;17.70;;
6414;SDS011;3240;48.790;9.210;2023-02-23T00:53:40;34.63;;;17.10;;
6414;SDS011;3240;48.790;9.210;2023-02-23T00:56:08;32.77;;;18.20;;
6414;SDS011;3240;48.790;9.210;2023-02-23T00:58:35;31.67;;;19.92;;
6414;SDS011;3240;48.790;9.210;2023-02-23T01:01:05;29.93;;;18.60;;
6414;SDS011;3240;48.790;9.210;2023-02-23T01:03:32;34.50;;;18.47;;
6414;SDS011;3240;48.790;9.210;2023-02-23T01:06:01;30.97;;;19.30;;
6414;SDS011;3240;48.790;9.210;2023-02-23T01:08:28;33.57;;;18.73;;
6414;SDS011;3240;48.790;9.210;2023-02-23T01:10:56;32.27;;;19.07;;
6414;SDS011;3240;48.790;9.210;2023-02-23T01:13:24;32.00;;;18.63;;
6414;SDS011;3240;48.790;9.210;2023-02-23T01:15:52;33.83;;;18.80;;
6414;SDS011;3240;48.790;9.210;2023-02-23T01:18:20;33.83;;;19.23;;
6414;SDS011;3240;48.790;9.210;2023-02-23T01:20:48;33.80;;;19.50;;
6414;SDS011;3240;48.790;9.210;2023-02-23T01:23:18;34.80;;;19.00;;
6414;SDS011;3240;48.790;9.210;2023-02-23T01:25:44;31.57;;;18.77;;
6414;SDS011;3240;48.790;9.210;2023-02-23T01:28:12;35.07;;;19.33;;
6414;SDS011;3240;48.790;9.210;2023-02-23T01:30:40;39.87;;;21.60;;
6414;SDS011;3240;48.790;9.210;2023-02-23T01:33:08;33.20;;;20.33;;
6414;SDS011;3240;48.790;9.210;2023-02-23T01:35:37;38.07;;;20.23;;
6414;SDS011;3240;48.790;9.210;2023-02-23T01:38:05;33.10;;;19.93;;
6414;SDS011;3240;48.790;9.210;2023-02-23T01:40:33;35.60;;;19.80;;
6414;SDS011;3240;48.790;9.210;2023-02-23T01:45:35;34.40;;;20.03;;
6414;SDS011;3240;48.790;9.210;2023-02-23T01:48:04;35.97;;;20.70;;
6414;SDS011;3240;48.790;9.210;2023-02-23T01:50:35;35.30;;;19.93;;
6414;SDS011;3240;48.790;9.210;2023-02-23T01:52:59;39.60;;;20.73;;
6414;SDS011;3240;48.790;9.210;2023-02-23T01:55:28;38.43;;;22.13;;
6414;SDS011;3240;48.790;9.210;2023-02-23T01:57:59;40.60;;;22.70;;
6414;SDS011;3240;48.790;9.210;2023-02-23T02:00:24;36.93;;;19.93;;
6414;SDS011;3240;48.790;9.210;2023-02-23T02:02:52;42.60;;;20.30;;
6414;SDS011;3240;48.790;9.210;2023-02-23T02:05:20;37.20;;;21.25;;
6414;SDS011;3240;48.790;9.210;2023-02-23T02:07:49;40.13;;;20.20;;
6414;SDS011;3240;48.790;9.210;2023-02-23T02:10:17;38.73;;;20.73;;
6414;SDS011;3240;48.790;9.210;2023-02-23T02:12:45;44.83;;;21.80;;
6414;SDS011;3240;48.790;9.210;2023-02-23T02:15:13;40.27;;;22.27;;
6414;SDS011;3240;48.790;9.210;2023-02-23T02:17:50;31.00;;;19.97;;
6414;SDS011;3240;48.790;9.210;2023-02-23T02:20:21;37.33;;;21.20;;
6414;SDS011;3240;48.790;9.210;2023-02-23T02:22:50;38.83;;;21.40;;
6414;SDS011;3240;48.790;9.210;2023-02-23T02:25:22;32.60;;;21.03;;
6414;SDS011;3240;48.790;9.210;2023-02-23T02:30:42;34.17;;;21.53;;
6414;SDS011;3240;48.790;9.210;2023-02-23T02:33:44;36.13;;;21.00;;
6414;SDS011;3240;48.790;9.210;2023-02-23T02:38:46;38.53;;;21.93;;
6414;SDS011;3240;48.790;9.210;2023-02-23T02:41:12;37.87;;;22.00;;
6414;SDS011;3240;48.790;9.210;2023-02-23T02:43:51;40.63;;;22.80;;
6414;SDS011;3240;48.790;9.210;2023-02-23T02:46:22;43.90;;;22.37;;
6414;SDS011;3240;48.790;9.210;2023-02-23T02:48:53;37.97;;;22.60;;
6414;SDS011;3240;48.790;9.210;2023-02-23T02:51:23;38.67;;;21.90;;
6414;SDS011;3240;48.790;9.210;2023-02-23T02:54:00;38.43;;;22.40;;
6414;SDS011;3240;48.790;9.210;2023-02-23T02:56:26;35.83;;;22.33;;
6414;SDS011;3240;48.790;9.210;2023-02-23T02:58:54;40.13;;;23.20;;
6414;SDS011;3240;48.790;9.210;2023-02-23T03:01:22;39.93;;;23.10;;
6414;SDS011;3240;48.790;9.210;2023-02-23T03:03:56;45.17;;;22.67;;
6414;SDS011;3240;48.790;9.210;2023-02-23T03:06:32;42.53;;;22.30;;
6414;SDS011;3240;48.790;9.210;2023-02-23T03:09:10;36.63;;;22.20;;
6414;SDS011;3240;48.790;9.210;2023-02-23T03:11:44;40.67;;;22.20;;
6414;SDS011;3240;48.790;9.210;2023-02-23T03:14:20;38.20;;;22.80;;
6414;SDS011;3240;48.790;9.210;2023-02-23T03:16:55;40.67;;;21.20;;
6414;SDS011;3240;48.790;9.210;2023-02-23T03:19:26;42.40;;;21.87;;
6414;SDS011;3240;48.790;9.210;2023-02-23T03:24:54;39.73;;;22.47;;
6414;SDS011;3240;48.790;9.210;2023-02-23T03:27:26;38.20;;;21.77;;
6414;SDS011;3240;48.790;9.210;2023-02-23T03:30:00;40.77;;;22.93;;
6414;SDS011;3240;48.790;9.210;2023-02-23T03:32:34;45.67;;;23.70;;
6414;SDS011;3240;48.790;9.210;2023-02-23T03:35:07;41.70;;;22.47;;
6414;SDS011;3240;48.790;9.210;2023-02-23T03:37:41;35.80;;;20.93;;
6414;SDS011;3240;48.790;9.210;2023-02-23T03:40:18;37.00;;;21.37;;
6414;SDS011;3240;48.790;9.210;2023-02-23T03:42:49;35.07;;;21.30;;
6414;SDS011;3240;48.790;9.210;2023-02-23T03:45:23;36.93;;;20.70;;
6414;SDS011;3240;48.790;9.210;2023-02-23T03:47:57;38.67;;;20.77;;
6414;SDS011;3240;48.790;9.210;2023-02-23T03:50:32;35.87;;;20.83;;
6414;SDS011;3240;48.790;9.210;2023-02-23T03:53:04;36.20;;;21.20;;
6414;SDS011;3240;48.790;9.210;2023-02-23T03:55:39;38.80;;;22.33;;
6414;SDS011;3240;48.790;9.210;2023-02-23T03:58:12;40.80;;;22.87;;
6414;SDS011;3240;48.790;9.210;2023-02-23T04:00:46;38.53;;;21.67;;
6414;SDS011;3240;48.790;9.210;2023-02-23T04:03:20;37.63;;;21.83;;
6414;SDS011;3240;48.790;9.210;2023-02-23T04:05:53;35.87;;;22.20;;
6414;SDS011;3240;48.790;9.210;2023-02-23T04:08:29;44.63;;;22.90;;
6414;SDS011;3240;48.790;9.210;2023-02-23T04:11:05;42.87;;;22.33;;
6414;SDS011;3240;48.790;9.210;2023-02-23T04:13:35;41.90;;;22.20;;
6414;SDS011;3240;48.790;9.210;2023-02-23T04:16:04;39.77;;;21.63;;
6414;SDS011;3240;48.790;9.210;2023-02-23T04:18:32;36.33;;;22.03;;
6414;SDS011;3240;48.790;9.210;2023-02-23T04:20:59;42.13;;;23.13;;
6414;SDS011;3240;48.790;9.210;2023-02-23T04:23:27;43.73;;;22.97;;
6414;SDS011;3240;48.790;9.210;2023-02-23T04:25:55;35.30;;;20.47;;
6414;SDS011;3240;48.790;9.210;2023-02-23T04:28:23;42.00;;;21.90;;
6414;SDS011;3240;48.790;9.210;2023-02-23T04:30:51;40.77;;;23.23;;
6414;SDS011;3240;48.790;9.210;2023-02-23T04:33:19;43.57;;;23.60;;
6414;SDS011;3240;48.790;9.210;2023-02-23T04:35:47;37.80;;;22.20;;
6414;SDS011;3240;48.790;9.210;2023-02-23T04:38:16;42.00;;;23.90;;
6414;SDS011;3240;48.790;9.210;2023-02-23T04:40:44;35.47;;;21.20;;
6414;SDS011;3240;48.790;9.210;2023-02-23T04:43:12;39.63;;;23.17;;
6414;SDS011;3240;48.790;9.210;2023-02-23T04:45:40;37.53;;;22.50;;
6414;SDS011;3240;48.790;9.210;2023-02-23T04:48:08;42.40;;;22.60;;
6414;SDS011;3240;48.790;9.210;2023-02-23T04:50:36;40.67;;;21.50;;
6414;SDS011;3240;48.790;9.210;2023-02-23T04:53:04;35.93;;;21.67;;
6414;SDS011;3240;48.790;9.210;2023-02-23T04:55:32;36.40;;;21.40;;
6414;SDS011;3240;48.790;9.210;2023-02-23T04:58:00;37.00;;;20.20;;
6414;SDS011;3240;48.790;9.210;2023-02-23T05:00:28;41.33;;;22.50;;
6414;SDS011;3240;48.790;9.210;2023-02-23T05:02:56;33.07;;;20.20;;
6414;SDS011;3240;48.790;9.210;2023-02-23T05:05:24;36.60;;;21.40;;
6414;SDS011;3240;48.790;9.210;2023-02-23T05:07:52;34.80;;;22.05;;
6414;SDS011;3240;48.790;9.210;2023-02-23T05:10:20;38.27;;;20.90;;
6414;SDS011;3240;48.790;9.210;2023-02-23T05:12:48;34.53;;;20.07;;
6414;SDS011;3240;48.790;9.210;2023-02-23T05:15:17;38.37;;;21.07;;
6414;SDS011;3240;48.790;9.210;2023-02-23T05:17:44;40.50;;;20.80;;
6414;SDS011;3240;48.790;9.210;2023-02-23T05:20:12;34.73;;;19.93;;
6414;SDS011;3240;48.790;9.210;2023-02-23T05:22:40;33.90;;;21.20;;
6414;SDS011;3240;48.790;9.210;2023-02-23T05:25:08;31.10;;;19.70;;
6414;SDS011;3240;48.790;9.210;2023-02-23T05:27:37;31.00;;;19.40;;
6414;SDS011;3240;48.790;9.210;2023-02-23T05:30:05;34.30;;;21.10;;
6414;SDS011;3240;48.790;9.210;2023-02-23T05:32:33;38.30;;;21.37;;
6414;SDS011;3240;48.790;9.210;2023-02-23T05:35:01;31.63;;;19.27;;
6414;SDS011;3240;48.790;9.210;2023-02-23T05:37:29;32.40;;;20.47;;
6414;SDS011;3240;48.790;9.210;2023-02-23T05:39:57;33.93;;;19.60;;
6414;SDS011;3240;48.790;9.210;2023-02-23T05:42:25;33.20;;;19.43;;
6414;SDS011;3240;48.790;9.210;2023-02-23T05:44:53;46.87;;;26.90;;
6414;SDS011;3240;48.790;9.210;2023-02-23T05:47:21;35.80;;;21.30;;
6414;SDS011;3240;48.790;9.210;2023-02-23T05:49:49;29.90;;;18.83;;
6414;SDS011;3240;48.790;9.210;2023-02-23T05:52:17;30.53;;;18.73;;
6414;SDS011;3240;48.790;9.210;2023-02-23T05:54:45;36.17;;;20.17;;
6414;SDS011;3240;48.790;9.210;2023-02-23T05:57:13;32.80;;;19.83;;
6414;SDS011;3240;48.790;9.210;2023-02-23T05:59:41;35.93;;;19.50;;
6414;SDS011;3240;48.790;9.210;2023-02-23T06:02:09;30.77;;;18.30;;
6414;SDS011;3240;48.790;9.210;2023-02-23T06:04:37;42.97;;;20.90;;
6414;SDS011;3240;48.790;9.210;2023-02-23T06:07:05;39.27;;;19.87;;
6414;SDS011;3240;48.790;9.210;2023-02-23T06:09:33;31.23;;;19.40;;
6414;SDS011;3240;48.790;9.210;2023-02-23T06:12:01;35.63;;;19.13;;
6414;SDS011;3240;48.790;9.210;2023-02-23T06:14:29;29.90;;;17.60;;
6414;SDS011;3240;48.790;9.210;2023-02-23T06:16:57;33.33;;;20.50;;
6414;SDS011;3240;48.790;9.210;2023-02-23T06:19:25;36.17;;;19.87;;
6414;SDS011;3240;48.790;9.210;2023-02-23T06:21:54;32.60;;;19.87;;
6414;SDS011;3240;48.790;9.210;2023-02-23T06:24:22;33.10;;;19.10;;
6414;SDS011;3240;48.790;9.210;2023-02-23T06:26:50;41.70;;;22.70;;
6414;SDS011;3240;48.790;9.210;2023-02-23T06:29:18;48.10;;;21.00;;
6414;SDS011;3240;48.790;9.210;2023-02-23T06:31:46;38.23;;;20.77;;
6414;SDS011;3240;48.790;9.210;2023-02-23T06:34:14;37.17;;;20.57;;
6414;SDS011;3240;48.790;9.210;2023-02-23T06:36:42;33.70;;;18.53;;
6414;SDS011;3240;48.790;9.210;2023-02-23T06:39:10;30.70;;;18.23;;
6414;SDS011;3240;48.790;9.210;2023-02-23T06:41:38;28.77;;;18.40;;
6414;SDS011;3240;48.790;9.210;2023-02-23T06:44:06;30.53;;;17.40;;
6414;SDS011;3240;48.790;9.210;2023-02-23T06:46:34;33.67;;;18.63;;
6414;SDS011;3240;48.790;9.210;2023-02-23T06:49:02;32.20;;;18.10;;
6414;SDS011;3240;48.790;9.210;2023-02-23T06:51:30;28.63;;;17.30;;
6414;SDS011;3240;48.790;9.210;2023-02-23T06:53:58;38.00;;;18.67;;
6414;SDS011;3240;48.790;9.210;2023-02-23T06:56:26;32.17;;;17.63;;
6414;SDS011;3240;48.790;9.210;2023-02-23T06:58:54;29.57;;;17.03;;
6414;SDS011;3240;48.790;9.210;2023-02-23T07:01:22;33.83;;;16.70;;
6414;SDS011;3240;48.790;9.210;2023-02-23T07:03:50;28.67;;;18.27;;
6414;SDS011;3240;48.790;9.210;2023-02-23T07:06:18;26.63;;;16.40;;
6414;SDS011;3240;48.790;9.210;2023-02-23T07:08:46;32.10;;;17.60;;
6414;SDS011;3240;48.790;9.210;2023-02-23T07:11:14;33.07;;;18.40;;
6414;SDS011;3240;48.790;9.210;2023-02-23T07:13:42;29.47;;;16.50;;
6414;SDS011;3240;48.790;9.210;2023-02-23T07:16:10;29.43;;;18.20;;
6414;SDS011;3240;48.790;9.210;2023-02-23T07:18:38;29.43;;;16.73;;
6414;SDS011;3240;48.790;9.210;2023-02-23T07:21:06;29.33;;;16.43;;
6414;SDS011;3240;48.790;9.210;2023-02-23T07:23:34;27.00;;;16.90;;
6414;SDS011;3240;48.790;9.210;2023-02-23T07:26:02;33.63;;;16.87;;
6414;SDS011;3240;48.790;9.210;2023-02-23T07:28:30;29.00;;;16.23;;
6414;SDS011;3240;48.790;9.210;2023-02-23T07:30:58;28.77;;;17.60;;
6414;SDS011;3240;48.790;9.210;2023-02-23T07:33:27;29.93;;;17.00;;
6414;SDS011;3240;48.790;9.210;2023-02-23T07:35:55;41.60;;;17.43;;
6414;SDS011;3240;48.790;9.210;2023-02-23T07:38:23;33.83;;;17.50;;
6414;SDS011;3240;48.790;9.210;2023-02-23T07:40:51;27.70;;;17.37;;
6414;SDS011;3240;48.790;9.210;2023-02-23T07:43:19;33.27;;;17.87;;
6414;SDS011;3240;48.790;9.210;2023-02-23T07:45:48;32.87;;;18.23;;
6414;SDS011;3240;48.790;9.210;2023-02-23T07:48:16;29.60;;;18.27;;
6414;SDS011;3240;48.790;9.210;2023-02-23T07:50:44;32.93;;;18.37;;
6414;SDS011;3240;48.790;9.210;2023-02-23T07:53:12;30.97;;;18.17;;
6414;SDS011;3240;48.790;9.210;2023-02-23T07:55:40;34.80;;;17.40;;
6414;SDS011;3240;48.790;9.210;2023-02-23T07:58:08;27.90;;;17.13;;
6414;SDS011;3240;48.790;9.210;2023-02-23T08:00:36;24.60;;;15.70;;
6414;SDS011;3240;48.790;9.210;2023-02-23T08:03:04;32.37;;;17.93;;
6414;SDS011;3240;48.790;9.210;2023-02-23T08:05:32;30.43;;;16.70;;
6414;SDS011;3240;48.790;9.210;2023-02-23T08:08:00;34.37;;;18.37;;
6414;SDS011;3240;48.790;9.210;2023-02-23T08:10:28;35.07;;;17.30;;
6414;SDS011;3240;48.790;9.210;2023-02-23T08:12:56;33.97;;;17.83;;
6414;SDS011;3240;48.790;9.210;2023-02-23T08:15:24;30.87;;;17.50;;
6414;SDS011;3240;48.790;9.210;2023-02-23T08:17:53;28.57;;;17.03;;
6414;SDS011;3240;48.790;9.210;2023-02-23T08:20:22;29.90;;;16.93;;
6414;SDS011;3240;48.790;9.210;2023-02-23T08:22:53;31.37;;;17.97;;
6414;SDS011;3240;48.790;9.210;2023-02-23T08:25:21;28.00;;;16.77;;
6414;SDS011;3240;48.790;9.210;2023-02-23T08:27:49;27.20;;;16.00;;
6414;SDS011;3240;48.790;9.210;2023-02-23T08:30:20;28.23;;;16.00;;
6414;SDS011;3240;48.790;9.210;2023-02-23T08:32:48;27.33;;;15.70;;
6414;SDS011;3240;48.790;9.210;2023-02-23T08:35:16;32.00;;;18.20;;
6414;SDS011;3240;48.790;9.210;2023-02-23T08:37:44;33.30;;;18.63;;
6414;SDS011;3240;48.790;9.210;2023-02-23T08:40:12;30.55;;;20.35;;
6414;SDS011;3240;48.790;9.210;2023-02-23T08:42:41;32.30;;;18.67;;
6414;SDS011;3240;48.790;9.210;2023-02-23T08:45:11;33.03;;;18.60;;
6414;SDS011;3240;48.790;9.210;2023-02-23T08:47:37;31.40;;;18.93;;
6414;SDS011;3240;48.790;9.210;2023-02-23T08:50:05;34.70;;;20.23;;
6414;SDS011;3240;48.790;9.210;2023-02-23T08:52:33;34.80;;;18.50;;
6414;SDS011;3240;48.790;9.210;2023-02-23T08:55:02;34.70;;;17.67;;
6414;SDS011;3240;48.790;9.210;2023-02-23T08:57:33;31.90;;;18.13;;
6414;SDS011;3240;48.790;9.210;2023-02-23T09:00:00;52.83;;;19.77;;
6414;SDS011;3240;48.790;9.210;2023-02-23T09:02:28;37.43;;;19.40;;
6414;SDS011;3240;48.790;9.210;2023-02-23T09:04:56;33.83;;;19.47;;
6414;SDS011;3240;48.790;9.210;2023-02-23T09:07:25;36.63;;;20.20;;
6414;SDS011;3240;48.790;9.210;2023-02-23T09:09:55;38.87;;;19.80;;
6414;SDS011;3240;48.790;9.210;2023-02-23T09:12:22;34.30;;;19.27;;
6414;SDS011;3240;48.790;9.210;2023-02-23T09:14:50;34.90;;;19.20;;
6414;SDS011;3240;48.790;9.210;2023-02-23T09:17:19;37.73;;;17.97;;
6414;SDS011;3240;48.790;9.210;2023-02-23T09:19:47;35.93;;;18.43;;
6414;SDS011;3240;48.790;9.210;2023-02-23T09:22:15;32.53;;;18.40;;
6414;SDS011;3240;48.790;9.210;2023-02-23T09:24:43;43.87;;;20.20;;
6414;SDS011;3240;48.790;9.210;2023-02-23T09:27:11;30.30;;;16.90;;
6414;SDS011;3240;48.790;9.210;2023-02-23T09:29:39;38.60;;;19.00;;
6414;SDS011;3240;48.790;9.210;2023-02-23T09:32:08;39.57;;;19.90;;
6414;SDS011;3240;48.790;9.210;2023-02-23T09:34:35;33.50;;;19.47;;
6414;SDS011;3240;48.790;9.210;2023-02-23T09:37:04;34.93;;;18.00;;
6414;SDS011;3240;48.790;9.210;2023-02-23T09:39:32;32.37;;;17.47;;
6414;SDS011;3240;48.790;9.210;2023-02-23T09:42:06;35.40;;;16.63;;
6414;SDS011;3240;48.790;9.210;2023-02-23T09:44:36;28.63;;;17.57;;
6414;SDS011;3240;48.790;9.210;2023-02-23T09:47:04;28.30;;;16.57;;
6414;SDS011;3240;48.790;9.210;2023-02-23T09:49:31;33.70;;;18.40;;
6414;SDS011;3240;48.790;9.210;2023-02-23T09:51:58;35.47;;;18.27;;
6414;SDS011;3240;48.790;9.210;2023-02-23T09:54:28;25.00;;;15.53;;
6414;SDS011;3240;48.790;9.210;2023-02-23T09:56:55;32.53;;;16.90;;
6414;SDS011;3240;48.790;9.210;2023-02-23T09:59:23;33.13;;;17.97;;
6414;SDS011;3240;48.790;9.210;2023-02-23T10:01:53;34.10;;;17.17;;
6414;SDS011;3240;48.790;9.210;2023-02-23T10:04:21;28.60;;;16.47;;
6414;SDS011;3240;48.790;9.210;2023-02-23T10:06:53;30.30;;;16.13;;
6414;SDS011;3240;48.790;9.210;2023-02-23T10:09:32;38.53;;;18.40;;
6414;SDS011;3240;48.790;9.210;2023-02-23T10:12:04;27.37;;;16.30;;
6414;SDS011;3240;48.790;9.210;2023-02-23T10:14:33;33.00;;;17.03;;
6414;SDS011;3240;48.790;9.210;2023-02-23T10:17:01;36.03;;;17.10;;
6414;SDS011;3240;48.790;9.210;2023-02-23T10:19:27;35.70;;;16.90;;
6414;SDS011;3240;48.790;9.210;2023-02-23T10:21:54;24.77;;;14.23;;
6414;SDS011;3240;48.790;9.210;2023-02-23T10:24:28;25.80;;;14.70;;
6414;SDS011;3240;48.790;9.210;2023-02-23T10:26:59;27.93;;;14.60;;
6414;SDS011;3240;48.790;9.210;2023-02-23T10:29:29;25.63;;;13.77;;
6414;SDS011;3240;48.790;9.210;2023-02-23T10:31:56;29.10;;;15.97;;
6414;SDS011;3240;48.790;9.210;2023-02-23T10:34:24;31.20;;;15.70;;
6414;SDS011;3240;48.790;9.210;2023-02-23T10:36:56;32.10;;;15.60;;
6414;SDS011;3240;48.790;9.210;2023-02-23T10:39:22;27.53;;;15.30;;
6414;SDS011;3240;48.790;9.210;2023-02-23T10:41:51;33.37;;;15.30;;
6414;SDS011;3240;48.790;9.210;2023-02-23T10:44:20;30.03;;;15.43;;
6414;SDS011;3240;48.790;9.210;2023-02-23T10:46:49;28.30;;;14.50;;
6414;SDS011;3240;48.790;9.210;2023-02-23T10:49:17;30.53;;;15.27;;
6414;SDS011;3240;48.790;9.210;2023-02-23T10:51:44;26.83;;;14.50;;
6414;SDS011;3240;48.790;9.210;2023-02-23T10:56:46;19.90;;;11.63;;
6414;SDS011;3240;48.790;9.210;2023-02-23T10:59:18;20.60;;;12.03;;
6414;SDS011;3240;48.790;9.210;2023-02-23T11:01:42;24.57;;;12.73;;
6414;SDS011;3240;48.790;9.210;2023-02-23T11:04:15;27.90;;;12.73;;
6414;SDS011;3240;48.790;9.210;2023-02-23T11:06:40;20.80;;;11.37;;
6414;SDS011;3240;48.790;9.210;2023-02-23T11:11:54;22.53;;;10.70;;
6414;SDS011;3240;48.790;9.210;2023-02-23T11:14:14;19.87;;;9.67;;
6414;SDS011;3240;48.790;9.210;2023-02-23T11:16:38;19.80;;;10.40;;
6414;SDS011;3240;48.790;9.210;2023-02-23T11:19:12;16.27;;;10.70;;
6414;SDS011;3240;48.790;9.210;2023-02-23T11:21:37;18.47;;;10.07;;
6414;SDS011;3240;48.790;9.210;2023-02-23T11:26:40;19.60;;;10.67;;
6414;SDS011;3240;48.790;9.210;2023-02-23T11:29:41;19.30;;;9.93;;
6414;SDS011;3240;48.790;9.210;2023-02-23T11:31:53;18.03;;;10.90;;
6414;SDS011;3240;48.790;9.210;2023-02-23T11:34:22;19.13;;;9.70;;
6414;SDS011;3240;48.790;9.210;2023-02-23T11:39:22;20.08;;;10.63;;
6414;SDS011;3240;48.790;9.210;2023-02-23T11:44:24;18.30;;;9.00;;
6414;SDS011;3240;48.790;9.210;2023-02-23T11:46:52;18.73;;;10.13;;
6414;SDS011;3240;48.790;9.210;2023-02-23T11:49:22;19.33;;;9.73;;
6414;SDS011;3240;48.790;9.210;2023-02-23T11:51:49;26.00;;;9.03;;
6414;SDS011;3240;48.790;9.210;2023-02-23T11:54:32;21.37;;;9.10;;
6414;SDS011;3240;48.790;9.210;2023-02-23T11:57:01;17.20;;;9.20;;
6414;SDS011;3240;48.790;9.210;2023-02-23T11:59:31;15.40;;;8.40;;
6414;SDS011;3240;48.790;9.210;2023-02-23T12:02:01;14.63;;;7.50;;
6414;SDS011;3240;48.790;9.210;2023-02-23T12:04:28;15.67;;;8.17;;
6414;SDS011;3240;48.790;9.210;2023-02-23T12:09:38;13.73;;;7.20;;
6414;SDS011;3240;48.790;9.210;2023-02-23T12:12:08;12.83;;;7.20;;
6414;SDS011;3240;48.790;9.210;2023-02-23T12:14:36;16.37;;;7.07;;
6414;SDS011;3240;48.790;9.210;2023-02-23T12:17:07;16.03;;;5.97;;
6414;SDS011;3240;48.790;9.210;2023-02-23T12:19:36;20.17;;;7.80;;
6414;SDS011;3240;48.790;9.210;2023-02-23T12:22:05;14.00;;;6.87;;
6414;SDS011;3240;48.790;9.210;2023-02-23T12:24:38;10.80;;;6.50;;
6414;SDS011;3240;48.790;9.210;2023-02-23T12:27:11;11.60;;;6.67;;
6414;SDS011;3240;48.790;9.210;2023-02-23T12:32:24;9.10;;;5.13;;
6414;SDS011;3240;48.790;9.210;2023-02-23T12:35:00;12.60;;;5.17;;
6414;SDS011;3240;48.790;9.210;2023-02-23T12:37:32;10.43;;;4.40;;
6414;SDS011;3240;48.790;9.210;2023-02-23T12:40:02;10.20;;;4.20;;
6414;SDS011;3240;48.790;9.210;2023-02-23T12:42:36;10.60;;;5.33;;
6414;SDS011;3240;48.790;9.210;2023-02-23T12:45:03;10.23;;;4.87;;
6414;SDS011;3240;48.790;9.210;2023-02-23T12:47:33;12.33;;;4.30;;
6414;SDS011;3240;48.790;9.210;2023-02-23T12:50:01;7.40;;;4.23;;
6414;SDS011;3240;48.790;9.210;2023-02-23T12:52:31;13.50;;;4.73;;
6414;SDS011;3240;48.790;9.210;2023-02-23T12:54:58;8.60;;;4.73;;
6414;SDS011;3240;48.790;9.210;2023-02-23T12:57:31;6.67;;;3.63;;
6414;SDS011;3240;48.790;9.210;2023-02-23T13:00:37;10.13;;;3.60;;
6414;SDS011;3240;48.790;9.210;2023-02-23T13:03:06;11.27;;;5.07;;
6414;SDS011;3240;48.790;9.210;2023-02-23T13:05:21;13.73;;;3.70;;
6414;SDS011;3240;48.790;9.210;2023-02-23T13:07:53;15.47;;;3.90;;
6414;SDS011;3240;48.790;9.210;2023-02-23T13:10:21;8.80;;;4.15;;
6414;SDS011;3240;48.790;9.210;2023-02-23T13:13:00;8.80;;;4.73;;
6414;SDS011;3240;48.790;9.210;2023-02-23T13:15:30;12.60;;;4.60;;
6414;SDS011;3240;48.790;9.210;2023-02-23T13:18:01;8.73;;;4.50;;
6414;SDS011;3240;48.790;9.210;2023-02-23T13:20:35;8.50;;;4.70;;
6414;SDS011;3240;48.790;9.210;2023-02-23T13:23:07;10.40;;;4.60;;
6414;SDS011;3240;48.790;9.210;2023-02-23T13:25:36;8.23;;;4.83;;
6414;SDS011;3240;48.790;9.210;2023-02-23T13:28:02;12.40;;;5.13;;
6414;SDS011;3240;48.790;9.210;2023-02-23T13:30:30;7.10;;;4.07;;
6414;SDS011;3240;48.790;9.210;2023-02-23T13:33:00;11.37;;;6.27;;
6414;SDS011;3240;48.790;9.210;2023-02-23T13:35:27;11.77;;;6.47;;
6414;SDS011;3240;48.790;9.210;2023-02-23T13:37:58;15.13;;;6.30;;
6414;SDS011;3240;48.790;9.210;2023-02-23T13:40:30;13.37;;;7.30;;
6414;SDS011;3240;48.790;9.210;2023-02-23T13:42:59;16.03;;;6.83;;
6414;SDS011;3240;48.790;9.210;2023-02-23T13:45:29;14.53;;;7.70;;
6414;SDS011;3240;48.790;9.210;2023-02-23T13:47:55;19.40;;;7.73;;
6414;SDS011;3240;48.790;9.210;2023-02-23T13:50:28;13.80;;;6.93;;
6414;SDS011;3240;48.790;9.210;2023-02-23T13:52:57;19.10;;;8.37;;
6414;SDS011;3240;48.790;9.210;2023-02-23T13:55:32;13.93;;;7.60;;
6414;SDS011;3240;48.790;9.210;2023-02-23T13:58:03;13.23;;;7.03;;
6414;SDS011;3240;48.790;9.210;2023-02-23T14:00:30;8.90;;;5.70;;
6414;SDS011;3240;48.790;9.210;2023-02-23T14:03:00;12.50;;;7.30;;
6414;SDS011;3240;48.790;9.210;2023-02-23T14:05:27;12.87;;;6.50;;
6414;SDS011;3240;48.790;9.210;2023-02-23T14:07:57;12.33;;;6.30;;
6414;SDS011;3240;48.790;9.210;2023-02-23T14:10:24;11.47;;;6.30;;
6414;SDS011;3240;48.790;9.210;2023-02-23T14:15:28;10.03;;;4.73;;
6414;SDS011;3240;48.790;9.210;2023-02-23T14:17:58;10.43;;;5.07;;
6414;SDS011;3240;48.790;9.210;2023-02-23T14:20:35;8.03;;;4.70;;
6414;SDS011;3240;48.790;9.210;2023-02-23T14:28:32;10.00;;;4.83;;
6414;SDS011;3240;48.790;9.210;2023-02-23T14:31:00;7.30;;;4.70;;
6414;SDS011;3240;48.790;9.210;2023-02-23T14:36:01;9.70;;;5.03;;
6414;SDS011;3240;48.790;9.210;2023-02-23T14:38:30;14.27;;;5.00;;
6414;SDS011;3240;48.790;9.210;2023-02-23T14:40:58;10.30;;;5.33;;
6414;SDS011;3240;48.790;9.210;2023-02-23T14:43:42;14.10;;;5.95;;
6414;SDS011;3240;48.790;9.210;2023-02-23T14:46:11;8.20;;;5.10;;
6414;SDS011;3240;48.790;9.210;2023-02-23T14:48:38;14.67;;;5.77;;
6414;SDS011;3240;48.790;9.210;2023-02-23T14:53:40;9.63;;;3.13;;
6414;SDS011;3240;48.790;9.210;2023-02-23T14:58:42;8.83;;;3.10;;
6414;SDS011;3240;48.790;9.210;2023-02-23T15:01:10;13.53;;;3.10;;
6414;SDS011;3240;48.790;9.210;2023-02-23T15:03:38;8.17;;;2.60;;
6414;SDS011;3240;48.790;9.210;2023-02-23T15:06:06;13.90;;;4.10;;
6414;SDS011;3240;48.790;9.210;2023-02-23T15:08:34;12.20;;;3.57;;
6414;SDS011;3240;48.790;9.210;2023-02-23T15:11:06;9.50;;;4.00;;
6414;SDS011;3240;48.790;9.210;2023-02-23T15:13:33;8.27;;;3.20;;
6414;SDS011;3240;48.790;9.210;2023-02-23T15:16:00;8.83;;;3.03;;
6414;SDS011;3240;48.790;9.210;2023-02-23T15:18:30;8.10;;;3.57;;
6414;SDS011;3240;48.790;9.210;2023-02-23T15:20:57;7.50;;;3.00;;
6414;SDS011;3240;48.790;9.210;2023-02-23T15:23:25;8.93;;;3.10;;
6414;SDS011;3240;48.790;9.210;2023-02-23T15:25:53;7.83;;;3.63;;
6414;SDS011;3240;48.790;9.210;2023-02-23T15:28:23;13.80;;;3.63;;
6414;SDS011;3240;48.790;9.210;2023-02-23T15:30:50;10.40;;;3.43;;
6414;SDS011;3240;48.790;9.210;2023-02-23T15:33:18;8.37;;;3.60;;
6414;SDS011;3240;48.790;9.210;2023-02-23T15:35:49;6.67;;;3.00;;
6414;SDS011;3240;48.790;9.210;2023-02-23T15:38:18;6.73;;;3.63;;
6414;SDS011;3240;48.790;9.210;2023-02-23T15:40:43;10.00;;;3.80;;
6414;SDS011;3240;48.790;9.210;2023-02-23T15:43:11;6.70;;;4.00;;
6414;SDS011;3240;48.790;9.210;2023-02-23T15:45:41;8.40;;;3.50;;
6414;SDS011;3240;48.790;9.210;2023-02-23T15:48:10;11.30;;;4.50;;
6414;SDS011;3240;48.790;9.210;2023-02-23T15:50:39;9.20;;;4.80;;